Aeroporto :
LOGIN :

Iscrizione | Disclaimer

   EN    FR    IT 

 










Sommario :    VFR   VFR Marginale   IFR   IFR Intensivo   IFR Molto Intensivo
Visibilità : 
Base nubi : 
>= 8 km
>= 3000ft
5 / 8 km
1000 / 3000 ft
1500m / 5 km
500 / 1000 ft
800 / 1500m
200 / 500 ft
< 800m
< 200 ft
Simboli :   Temporali  Nebbia  Neve Forte  Precipitazioni Forti  Vento > 20 kt
SIGMETs :   Varie  Temporali  Ghiacco  Turbolenza  Onda orograficha  Ceneri Vulcaniche






- Altitudine del aeroporto : 461 ft
- Codice IATA : WIE


ETOU - Wiesbaden Army

ULTIMO METAR :
  • 180526Z AUTO 00000KT 9999 SCT005 BKN037 OVC070 13/13 A2986 RMK AO2 SLP113 $

METARs OBSOLETI :
  • 180506Z AUTO 00000KT 9999 BKN005 BKN055 OVC095 13/13 A2986 RMK AO2 CIG 005V049 BKN005 V SCT SLP113 $
  • 180456Z AUTO 00000KT 9999 SCT005 BKN047 BKN055 OVC110 13/13 A2987 RMK AO2 SLP116 T01300130 $
  • 180436Z AUTO 00000KT 9999 FEW004 SCT018 OVC045 13/13 A2987 RMK AO2 SLP116 $
  • 180426Z AUTO 16003KT 9000 BR SCT002 BKN017 OVC045 13/13 A2987 RMK AO2 CIG 003V017 SLP116 $
  • 180356Z AUTO 00000KT 9999 OVC004 13/13 A2988 RMK AO2 RAE0256 SLP120 P0001 T01330133 $
  • 180325Z AUTO 18003KT 9999 OVC004 13/13 A2987 RMK AO2 RAE0256 SLP116 $
  • 180315Z AUTO 00000KT 9999 OVC005 13/13 A2987 RMK AO2 RAE0256 CIG 005V008 CIG 004 RWY07 SLP116 $
  • 180257Z AUTO 18004KT 9000 BR OVC008 13/13 A2987 RMK AO2 RAE56 OVC V BKN CIG 005 RWY07 SLP116 $
  • 180256Z AUTO 17004KT 9000 -RA BR OVC008 13/13 A2987 RMK AO2 RAB45 OVC V BKN CIG 005 RWY07 SLP116 P0000 60000 T01330131 57009 $

TAF AMD TAF ETOU
Valido dal 18 a 05 ore il 19 a 09 ore UTC


1805/1909 VRB06KT 9999 OVC005 QNH2985INS
TEMPO 1805/1806 OVC015
BECMG 1806/1807 18009KT 9999 OVC015 QNH2982INS
BECMG 1810/1811 20012KT 8000 -SHRA OVC020 QNH2979INS
BECMG 1816/1817 VRB06KT 9999 NSW BKN030 QNH2981INS
BECMG 1907/1908 17009KT 8000 -SHRA OVC020 QNH2986INS TX15/1813Z TN11/1901Z



MetMap, La meteo Aeronautica in un colpo d'occhio ! - Copyright ORBIFLY Dicembre 2007 - Disclaimer

ORBIFLY MET'MAP TEAM :

Programmazione e sviluppo : Alexandra Zaïnal
Concezione e sviluppo : Baudouin d'Aumeries
Co-Programmazione e sviluppo : Marc-Olivier Méhu
Supporto tecnico e logistico : Manuel Goepfert
Aiuto per la traduzione : Arnaldo La Scala

Contatto : metmap@orbifly.com




FONTI E CREDITI :

   NOAA